createdAt,value
2023-04-28T00:01:04.966Z,9.82
2023-04-28T00:03:53.435Z,9.86
2023-04-28T00:06:40.190Z,9.92
2023-04-28T00:09:26.542Z,9.85
2023-04-28T00:12:12.833Z,9.80
2023-04-28T00:14:59.187Z,9.82
2023-04-28T00:17:45.590Z,9.79
2023-04-28T00:20:33.316Z,9.60
2023-04-28T00:23:19.629Z,9.62
2023-04-28T00:26:06.110Z,9.58
2023-04-28T00:28:52.400Z,9.57
2023-04-28T00:31:38.701Z,9.42
2023-04-28T00:34:25.069Z,9.33
2023-04-28T00:37:12.850Z,9.27
2023-04-28T00:39:58.997Z,9.37
2023-04-28T00:42:45.150Z,9.21
2023-04-28T00:45:31.775Z,9.13
2023-04-28T00:48:18.559Z,9.50
2023-04-28T00:51:06.647Z,9.40
2023-04-28T00:53:55.187Z,9.50
2023-04-28T00:56:41.735Z,9.40
2023-04-28T00:59:27.959Z,9.16
2023-04-28T01:02:17.549Z,9.27
2023-04-28T01:05:05.010Z,9.30
2023-04-28T01:07:52.361Z,9.49
2023-04-28T01:10:45.078Z,9.30
2023-04-28T01:13:39.637Z,9.36
2023-04-28T01:16:26.900Z,9.38
2023-04-28T01:19:21.552Z,9.58
2023-04-28T01:22:10.265Z,9.48
2023-04-28T01:25:00.235Z,9.67
2023-04-28T01:27:46.782Z,9.62
2023-04-28T01:30:32.861Z,9.72
2023-04-28T01:33:18.851Z,9.68
2023-04-28T01:36:05.482Z,10.12
2023-04-28T01:38:51.893Z,10.23
2023-04-28T01:41:39.383Z,10.58
2023-04-28T01:44:26.265Z,10.81
2023-04-28T01:47:12.390Z,11.27
2023-04-28T01:49:59.001Z,10.73
2023-04-28T01:52:45.047Z,10.52
2023-04-28T01:55:31.023Z,10.28
2023-04-28T01:58:19.785Z,10.10
2023-04-28T02:01:06.784Z,10.02
2023-04-28T02:03:55.163Z,10.32
2023-04-28T02:06:43.148Z,9.86
2023-04-28T02:09:32.158Z,10.02
2023-04-28T02:12:18.517Z,10.25
2023-04-28T02:15:08.063Z,9.91
2023-04-28T02:17:54.318Z,10.20
2023-04-28T02:20:40.938Z,10.11
2023-04-28T02:23:27.716Z,10.12
2023-04-28T02:26:14.521Z,10.46
2023-04-28T02:29:01.485Z,10.15
2023-04-28T02:31:52.580Z,10.12
2023-04-28T02:34:39.095Z,9.95
2023-04-28T02:37:27.143Z,9.83
2023-04-28T02:40:14.550Z,9.94
2023-04-28T02:43:00.754Z,9.76
2023-04-28T02:45:47.233Z,10.00
2023-04-28T02:48:37.274Z,10.13
2023-04-28T02:51:23.736Z,10.27
2023-04-28T02:54:10.024Z,10.00
2023-04-28T02:56:57.751Z,10.04
2023-04-28T02:59:44.068Z,10.28
2023-04-28T03:02:30.187Z,9.82
2023-04-28T03:05:18.139Z,9.93
2023-04-28T03:08:04.889Z,9.88
2023-04-28T03:10:51.173Z,10.04
2023-04-28T03:13:37.397Z,10.04
2023-04-28T03:16:24.233Z,10.32
2023-04-28T03:19:10.945Z,10.18
2023-04-28T03:21:58.388Z,10.15
2023-04-28T03:24:44.532Z,10.01
2023-04-28T03:27:31.301Z,9.87
2023-04-28T03:30:18.039Z,10.01
2023-04-28T03:33:05.772Z,10.27
2023-04-28T03:35:53.557Z,10.29
2023-04-28T03:38:41.668Z,9.94
2023-04-28T03:41:28.331Z,10.36
2023-04-28T03:44:34.014Z,10.09
2023-04-28T03:47:21.313Z,10.12
2023-04-28T03:50:09.054Z,10.05
2023-04-28T03:52:55.268Z,10.50
2023-04-28T03:55:43.815Z,10.28
2023-04-28T03:58:32.673Z,10.09
2023-04-28T04:01:20.606Z,10.15
2023-04-28T04:04:08.353Z,9.95
2023-04-28T04:06:55.018Z,10.16
2023-04-28T04:09:41.678Z,10.27
2023-04-28T04:12:30.621Z,10.17
2023-04-28T04:15:17.338Z,9.96
2023-04-28T04:18:04.906Z,10.24
2023-04-28T04:21:06.128Z,10.29
2023-04-28T04:23:52.644Z,9.97
2023-04-28T04:26:39.102Z,10.30
2023-04-28T04:29:42.179Z,10.06
2023-04-28T04:32:32.275Z,10.48
2023-04-28T04:35:19.433Z,10.18
2023-04-28T04:38:07.361Z,9.85
2023-04-28T04:40:54.526Z,10.13
2023-04-28T04:43:40.956Z,10.23
2023-04-28T04:46:28.783Z,10.07
2023-04-28T04:49:15.503Z,10.10
2023-04-28T04:52:02.886Z,9.86
2023-04-28T04:54:49.426Z,9.79
2023-04-28T04:57:36.151Z,9.68
2023-04-28T05:00:29.169Z,9.77
2023-04-28T05:03:17.244Z,9.51
2023-04-28T05:06:04.274Z,9.67
2023-04-28T05:09:03.407Z,9.95
2023-04-28T05:11:52.472Z,9.62
2023-04-28T05:14:39.142Z,9.70
2023-04-28T05:17:25.797Z,10.13
2023-04-28T05:20:14.044Z,10.30
2023-04-28T05:23:00.510Z,10.08
2023-04-28T05:25:47.160Z,10.23
2023-04-28T05:28:34.372Z,9.99
2023-04-28T05:31:21.458Z,9.81
2023-04-28T05:34:07.876Z,9.69
2023-04-28T05:36:55.737Z,9.97
2023-04-28T05:39:45.088Z,9.57
2023-04-28T05:42:32.184Z,9.42
2023-04-28T05:45:18.742Z,9.57
2023-04-28T05:48:05.992Z,9.49
2023-04-28T05:50:52.704Z,9.75
2023-04-28T05:53:40.444Z,9.75
2023-04-28T05:56:26.773Z,10.01
2023-04-28T05:59:13.729Z,9.94
2023-04-28T06:02:02.776Z,10.15
2023-04-28T06:04:50.116Z,10.16
2023-04-28T06:07:37.446Z,10.12
2023-04-28T06:10:27.304Z,10.43
2023-04-28T06:13:14.677Z,10.55
2023-04-28T06:16:02.078Z,10.38
2023-04-28T06:18:49.688Z,10.73
2023-04-28T06:21:37.288Z,10.63
2023-04-28T06:24:23.589Z,10.62
2023-04-28T06:27:14.066Z,10.70
2023-04-28T06:30:00.304Z,10.63
2023-04-28T06:32:46.928Z,10.73
2023-04-28T06:35:35.750Z,10.60
2023-04-28T06:38:22.236Z,10.97
2023-04-28T06:41:08.570Z,10.60
2023-04-28T06:43:56.361Z,10.81
2023-04-28T06:46:49.447Z,11.14
2023-04-28T06:49:36.125Z,11.44
2023-04-28T06:52:27.069Z,11.28
2023-04-28T06:55:20.411Z,11.52
2023-04-28T06:58:06.834Z,11.26
2023-04-28T07:00:55.309Z,10.85
2023-04-28T07:03:45.557Z,11.40
2023-04-28T07:06:32.467Z,10.79
2023-04-28T07:09:18.676Z,11.14
2023-04-28T07:12:05.723Z,11.11
2023-04-28T07:14:51.918Z,11.51
2023-04-28T07:17:39.774Z,11.39
2023-04-28T07:20:26.434Z,11.66
2023-04-28T07:23:12.802Z,12.24
2023-04-28T07:25:59.311Z,12.49
2023-04-28T07:28:45.979Z,12.74
2023-04-28T07:31:32.536Z,12.84
2023-04-28T07:34:20.255Z,12.83
2023-04-28T07:37:07.590Z,12.41
2023-04-28T07:39:54.626Z,12.20
2023-04-28T07:42:41.769Z,12.91
2023-04-28T07:45:28.264Z,12.83
2023-04-28T07:48:14.695Z,12.28
2023-04-28T07:51:04.298Z,12.07
2023-04-28T07:53:51.273Z,12.00
2023-04-28T07:56:37.279Z,12.18
2023-04-28T07:59:23.670Z,12.00
2023-04-28T08:02:13.455Z,11.97
2023-04-28T08:05:00.486Z,12.32
2023-04-28T08:07:51.316Z,12.45
2023-04-28T08:10:38.189Z,12.31
2023-04-28T08:13:24.889Z,12.34
2023-04-28T08:16:11.690Z,12.53
2023-04-28T08:18:59.670Z,12.24
2023-04-28T08:21:46.384Z,12.04
2023-04-28T08:24:35.181Z,12.23
2023-04-28T08:27:23.513Z,12.40
2023-04-28T08:30:11.981Z,12.50
2023-04-28T08:32:58.568Z,12.74
2023-04-28T08:35:45.322Z,12.35
2023-04-28T08:38:32.047Z,12.71
2023-04-28T08:41:21.825Z,12.76
2023-04-28T08:44:09.990Z,12.69
2023-04-28T08:47:00.384Z,12.90
2023-04-28T08:49:50.368Z,13.19
2023-04-28T08:52:37.443Z,12.99
2023-04-28T08:55:25.316Z,12.88
2023-04-28T08:58:13.366Z,13.06
2023-04-28T09:00:59.764Z,12.96
2023-04-28T09:03:47.688Z,13.19
2023-04-28T09:06:36.506Z,13.10
2023-04-28T09:09:24.948Z,13.71
2023-04-28T09:12:12.768Z,13.34
2023-04-28T09:15:09.087Z,13.38
2023-04-28T09:17:56.515Z,13.71
2023-04-28T09:20:43.261Z,13.36
2023-04-28T09:23:29.614Z,13.39
2023-04-28T09:26:15.856Z,13.57
2023-04-28T09:29:13.707Z,13.45
2023-04-28T09:32:17.757Z,13.37
2023-04-28T09:35:07.312Z,13.49
2023-04-28T09:37:59.830Z,13.46
2023-04-28T09:40:57.788Z,13.43
2023-04-28T09:43:44.394Z,13.49
2023-04-28T09:46:30.925Z,13.58
2023-04-28T09:49:19.264Z,13.65
2023-04-28T09:52:13.662Z,13.69
2023-04-28T09:55:02.317Z,13.81
2023-04-28T09:57:50.666Z,13.68
2023-04-28T10:00:38.130Z,13.48
2023-04-28T10:03:29.085Z,13.33
2023-04-28T10:06:18.579Z,13.13
2023-04-28T10:09:06.613Z,13.40
2023-04-28T10:11:53.541Z,13.48
2023-04-28T10:14:40.895Z,13.44
2023-04-28T10:17:29.370Z,13.36
2023-04-28T10:20:16.952Z,13.70
2023-04-28T10:23:31.525Z,13.59
2023-04-28T10:30:37.618Z,14.20
2023-04-28T10:33:27.304Z,14.34
2023-04-28T10:36:50.898Z,14.56
2023-04-28T10:39:39.011Z,14.25
2023-04-28T10:42:54.311Z,14.51
2023-04-28T10:46:02.795Z,14.24
2023-04-28T10:48:57.056Z,14.25
2023-04-28T10:51:43.045Z,14.15
2023-04-28T10:54:30.526Z,14.32
2023-04-28T10:57:22.730Z,14.25
2023-04-28T11:00:36.673Z,14.56
2023-04-28T11:03:50.953Z,14.39
2023-04-28T11:06:42.705Z,14.01
2023-04-28T11:09:50.428Z,14.95
2023-04-28T11:12:38.095Z,14.78
2023-04-28T11:15:24.475Z,14.90
2023-04-28T11:18:18.380Z,14.71
2023-04-28T11:21:05.222Z,14.73
2023-04-28T11:23:52.625Z,14.74
2023-04-28T11:26:39.476Z,14.72
2023-04-28T11:29:35.164Z,15.43
2023-04-28T11:32:27.739Z,15.42
2023-04-28T11:35:14.359Z,15.79
2023-04-28T11:38:04.964Z,15.13
2023-04-28T11:40:58.369Z,15.04
2023-04-28T11:43:47.367Z,15.27
2023-04-28T11:46:35.544Z,15.22
2023-04-28T11:49:24.358Z,15.36
2023-04-28T11:52:11.971Z,15.55
2023-04-28T11:55:00.858Z,15.01
2023-04-28T11:57:47.157Z,15.74
2023-04-28T12:00:33.851Z,16.20
2023-04-28T12:03:21.975Z,15.86
2023-04-28T12:06:09.164Z,16.00
2023-04-28T12:08:55.710Z,16.20
2023-04-28T12:11:53.542Z,16.04
2023-04-28T12:14:56.788Z,14.99
2023-04-28T12:17:45.355Z,15.02
2023-04-28T12:20:37.992Z,15.22
2023-04-28T12:23:31.244Z,15.43
2023-04-28T12:26:26.460Z,15.19
2023-04-28T12:29:38.176Z,14.84
2023-04-28T12:32:39.744Z,15.51
2023-04-28T12:35:27.352Z,15.57
2023-04-28T12:38:15.902Z,14.96
2023-04-28T12:41:02.111Z,15.33
2023-04-28T12:43:48.720Z,15.77
2023-04-28T12:46:35.153Z,15.82
2023-04-28T12:49:21.721Z,15.47
2023-04-28T12:52:19.709Z,15.46
2023-04-28T12:55:09.228Z,15.03
2023-04-28T12:57:56.007Z,15.20
2023-04-28T13:00:42.953Z,15.59
2023-04-28T13:03:29.516Z,15.21
2023-04-28T13:06:15.707Z,15.75
2023-04-28T13:09:03.503Z,15.63
2023-04-28T13:11:53.510Z,15.63
2023-04-28T13:14:39.927Z,15.72
2023-04-28T13:17:27.143Z,15.90
2023-04-28T13:20:13.783Z,16.05
2023-04-28T13:23:00.030Z,15.70
2023-04-28T13:25:46.520Z,15.69
2023-04-28T13:28:34.078Z,15.35
2023-04-28T13:31:20.944Z,15.42
2023-04-28T13:34:08.824Z,15.26
2023-04-28T13:36:55.537Z,14.73
2023-04-28T13:39:42.048Z,15.04
2023-04-28T13:42:29.106Z,15.01
2023-04-28T13:45:17.711Z,15.16
2023-04-28T13:48:04.765Z,15.17
2023-04-28T13:50:52.088Z,14.80
2023-04-28T13:53:41.975Z,15.03
2023-04-28T13:56:28.536Z,14.97
2023-04-28T13:59:14.979Z,14.43
2023-04-28T14:02:02.553Z,14.86
2023-04-28T14:04:50.727Z,14.72
2023-04-28T14:07:37.677Z,14.79
2023-04-28T14:10:24.149Z,14.85
2023-04-28T14:13:10.947Z,14.46
2023-04-28T14:15:59.633Z,14.79
2023-04-28T14:18:47.890Z,14.99
2023-04-28T14:21:34.520Z,14.92
2023-04-28T14:24:21.513Z,14.51
2023-04-28T14:27:08.206Z,14.65
2023-04-28T14:29:54.629Z,14.33
2023-04-28T14:32:41.449Z,14.38
2023-04-28T14:35:31.812Z,14.04
2023-04-28T14:38:18.799Z,14.26
2023-04-28T14:41:05.034Z,14.28
2023-04-28T14:43:51.538Z,14.50
2023-04-28T14:46:38.700Z,14.16
2023-04-28T14:49:27.494Z,14.50
2023-04-28T14:52:15.748Z,14.19
2023-04-28T14:55:03.111Z,14.13
2023-04-28T14:57:49.194Z,14.02
2023-04-28T15:00:36.397Z,14.03
2023-04-28T15:03:22.771Z,13.97
2023-04-28T15:06:09.430Z,14.14
2023-04-28T15:08:57.528Z,13.96
2023-04-28T15:11:43.807Z,14.21
2023-04-28T15:14:30.411Z,14.78
2023-04-28T15:17:16.962Z,14.28
2023-04-28T15:20:03.938Z,14.24
2023-04-28T15:22:50.552Z,14.52
2023-04-28T15:25:38.476Z,14.62
2023-04-28T15:28:25.043Z,14.63
2023-04-28T15:31:11.780Z,14.35
2023-04-28T15:33:58.238Z,14.52
2023-04-28T15:36:44.767Z,14.32
2023-04-28T15:39:31.988Z,14.10
2023-04-28T15:42:19.733Z,14.31
2023-04-28T15:45:07.739Z,14.71
2023-04-28T15:47:55.178Z,14.65
2023-04-28T15:50:41.924Z,14.99
2023-04-28T15:53:28.542Z,14.24
2023-04-28T15:56:15.086Z,14.06
2023-04-28T15:59:03.519Z,14.25
2023-04-28T16:01:49.956Z,14.41
2023-04-28T16:04:40.280Z,14.49
2023-04-28T16:07:26.873Z,14.24
2023-04-28T16:10:14.569Z,14.30
2023-04-28T16:13:05.198Z,13.70
2023-04-28T16:15:53.109Z,13.70
2023-04-28T16:18:39.425Z,13.92
2023-04-28T16:21:25.843Z,14.08
2023-04-28T16:24:12.734Z,13.87
2023-04-28T16:26:59.399Z,14.24
2023-04-28T16:29:45.885Z,13.90
2023-04-28T16:32:37.237Z,14.00
2023-04-28T16:35:26.722Z,14.16
2023-04-28T16:38:14.824Z,13.97
2023-04-28T16:41:01.168Z,14.16
2023-04-28T16:43:47.669Z,14.44
2023-04-28T16:46:33.954Z,14.04
2023-04-28T16:49:21.869Z,14.24
2023-04-28T16:52:08.972Z,13.91
2023-04-28T16:54:55.394Z,13.86
2023-04-28T16:57:41.863Z,13.91
2023-04-28T17:00:28.063Z,13.95
2023-04-28T17:03:14.465Z,13.87
2023-04-28T17:06:04.436Z,13.90
2023-04-28T17:08:50.596Z,13.58
2023-04-28T17:11:37.650Z,13.96
2023-04-28T17:14:23.991Z,13.80
2023-04-28T17:17:10.745Z,13.69
2023-04-28T17:19:58.712Z,13.62
2023-04-28T17:22:46.720Z,13.79
2023-04-28T17:25:33.070Z,13.89
2023-04-28T17:28:19.462Z,13.54
2023-04-28T17:31:06.433Z,13.74
2023-04-28T17:33:54.182Z,14.04
2023-04-28T17:36:41.186Z,14.12
2023-04-28T17:39:29.032Z,13.93
2023-04-28T17:42:16.581Z,13.93
2023-04-28T17:45:04.512Z,14.12
2023-04-28T17:47:51.107Z,13.87
2023-04-28T17:50:37.293Z,13.68
2023-04-28T17:53:23.722Z,13.79
2023-04-28T17:56:11.539Z,13.68
2023-04-28T17:58:58.148Z,13.51
2023-04-28T18:01:44.492Z,13.46
2023-04-28T18:04:31.324Z,13.52
2023-04-28T18:07:18.218Z,13.79
2023-04-28T18:10:05.692Z,13.80
2023-04-28T18:12:54.249Z,13.73
2023-04-28T18:15:41.367Z,13.77
2023-04-28T18:18:30.229Z,13.49
2023-04-28T18:21:18.055Z,13.12
2023-04-28T18:24:04.194Z,13.03
2023-04-28T18:26:50.925Z,12.83
2023-04-28T18:29:38.521Z,12.98
2023-04-28T18:32:25.176Z,13.09
2023-04-28T18:35:11.591Z,12.90
2023-04-28T18:38:00.975Z,12.87
2023-04-28T18:40:47.514Z,13.07
2023-04-28T18:43:34.702Z,12.81
2023-04-28T18:46:22.662Z,12.56
2023-04-28T18:49:09.635Z,12.66
2023-04-28T18:51:55.927Z,12.50
2023-04-28T18:54:42.391Z,12.53
2023-04-28T18:57:29.015Z,12.70
2023-04-28T19:00:15.368Z,12.46
2023-04-28T19:03:04.157Z,12.36
2023-04-28T19:05:50.879Z,12.20
2023-04-28T19:08:38.939Z,12.26
2023-04-28T19:11:25.746Z,12.42
2023-04-28T19:14:12.068Z,12.20
2023-04-28T19:16:58.577Z,12.15
2023-04-28T19:19:46.245Z,12.31
2023-04-28T19:22:34.857Z,12.38
2023-04-28T19:25:21.176Z,12.17
2023-04-28T19:28:08.263Z,12.16
2023-04-28T19:30:54.777Z,11.90
2023-04-28T19:33:41.538Z,11.91
2023-04-28T19:36:29.309Z,12.01
2023-04-28T19:39:16.344Z,12.19
2023-04-28T19:42:03.052Z,12.31
2023-04-28T19:44:54.285Z,12.42
2023-04-28T19:47:40.939Z,12.16
2023-04-28T19:50:26.872Z,12.06
2023-04-28T19:53:14.876Z,12.22
2023-04-28T19:56:02.103Z,12.01
2023-04-28T19:58:48.697Z,12.06
2023-04-28T20:01:35.422Z,11.99
2023-04-28T20:04:22.348Z,12.17
2023-04-28T20:07:10.335Z,11.89
2023-04-28T20:09:58.100Z,12.31
2023-04-28T20:12:44.610Z,12.08
2023-04-28T20:15:31.390Z,11.85
2023-04-28T20:18:17.801Z,11.83
2023-04-28T20:21:04.305Z,12.08
2023-04-28T20:23:50.700Z,11.84
2023-04-28T20:26:38.593Z,11.98
2023-04-28T20:29:25.181Z,11.87
2023-04-28T20:32:11.691Z,11.92
2023-04-28T20:34:58.074Z,11.63
2023-04-28T20:37:44.594Z,12.08
2023-04-28T20:40:31.129Z,11.88
2023-04-28T20:43:18.893Z,11.49
2023-04-28T20:46:09.947Z,11.52
2023-04-28T20:48:56.549Z,11.70
2023-04-28T20:51:45.210Z,11.45
2023-04-28T20:54:32.615Z,11.48
2023-04-28T20:57:18.774Z,11.29
2023-04-28T21:00:08.053Z,11.51
2023-04-28T21:02:54.681Z,11.42
2023-04-28T21:05:41.345Z,11.44
2023-04-28T21:08:29.736Z,11.68
2023-04-28T21:11:17.549Z,11.54
2023-04-28T22:00:10.880Z,10.99
2023-04-28T22:03:01.087Z,10.94
2023-04-28T22:05:48.170Z,11.13
2023-04-28T22:08:34.353Z,11.03
2023-04-28T22:11:20.440Z,11.27
2023-04-28T22:14:06.475Z,11.19
